createdAt,value
2023-03-28T00:08:08.749Z,0.71
2023-03-28T00:24:08.647Z,0.68
2023-03-28T00:25:08.672Z,0.68
2023-03-28T00:39:08.602Z,0.61
2023-03-28T00:40:08.601Z,0.63
2023-03-28T00:48:15.285Z,0.72
2023-03-28T00:49:09.561Z,0.72
2023-03-28T00:51:08.567Z,0.71
2023-03-28T00:52:08.553Z,0.74
2023-03-28T00:53:08.553Z,0.73
2023-03-28T00:55:08.542Z,0.74
2023-03-28T01:00:08.495Z,0.77
2023-03-28T01:03:08.536Z,0.74
2023-03-28T01:07:08.440Z,0.72
2023-03-28T01:22:08.314Z,0.70
2023-03-28T01:26:08.332Z,0.72
2023-03-28T01:40:08.217Z,0.63
2023-03-28T01:41:08.200Z,0.66
2023-03-28T01:42:08.207Z,0.61
2023-03-28T01:46:08.233Z,0.55
2023-03-28T01:54:08.157Z,0.55
2023-03-28T01:55:08.162Z,0.58
2023-03-28T01:56:08.169Z,0.59
2023-03-28T01:57:08.230Z,0.57
2023-03-28T02:02:08.251Z,0.54
2023-03-28T02:08:08.212Z,0.56
2023-03-28T02:10:08.187Z,0.54
2023-03-28T02:11:08.214Z,0.54
2023-03-28T02:15:08.198Z,0.57
2023-03-28T02:16:08.272Z,0.59
2023-03-28T02:17:08.227Z,0.56
2023-03-28T02:18:08.367Z,0.55
2023-03-28T02:22:08.237Z,0.56
2023-03-28T02:23:08.266Z,0.58
2023-03-28T02:24:08.236Z,0.56
2023-03-28T02:25:08.312Z,0.54
2023-03-28T02:33:08.300Z,0.54
2023-03-28T02:34:08.298Z,0.53
2023-03-28T02:48:08.305Z,0.67
2023-03-28T02:49:08.338Z,0.67
2023-03-28T02:50:08.341Z,0.68
2023-03-28T02:51:08.334Z,0.65
2023-03-28T02:52:08.360Z,0.66
2023-03-28T02:59:08.336Z,0.69
2023-03-28T03:00:08.346Z,0.67
2023-03-28T03:01:08.467Z,0.70
2023-03-28T03:04:08.383Z,0.68
2023-03-28T03:18:08.409Z,0.59
2023-03-28T03:19:08.391Z,0.63
2023-03-28T03:22:08.386Z,0.58
2023-03-28T03:23:08.400Z,0.58
2023-03-28T03:24:08.428Z,0.56
2023-03-28T03:31:08.456Z,0.54
2023-03-28T03:32:08.446Z,0.57
2023-03-28T03:33:08.451Z,0.55
2023-03-28T03:34:08.438Z,0.57
2023-03-28T03:35:08.471Z,0.56
2023-03-28T03:36:08.507Z,0.58
2023-03-28T03:47:08.438Z,0.66
2023-03-28T03:48:08.537Z,0.63
2023-03-28T03:58:08.478Z,0.62
2023-03-28T03:59:08.481Z,0.65
2023-03-28T04:00:08.486Z,0.67
2023-03-28T04:01:08.497Z,0.69
2023-03-28T04:03:08.599Z,0.69
2023-03-28T04:04:09.533Z,0.67
2023-03-28T04:06:08.488Z,0.67
2023-03-28T04:13:08.437Z,0.66
2023-03-28T04:19:08.406Z,0.68
2023-03-28T04:20:08.367Z,0.68
2023-03-28T04:21:08.363Z,0.68
2023-03-28T04:22:08.328Z,0.73
2023-03-28T04:23:08.419Z,0.83
2023-03-28T04:31:08.305Z,1.42
2023-03-28T04:36:08.458Z,1.39
2023-03-28T04:37:08.501Z,1.36
2023-03-28T04:38:08.518Z,1.36
2023-03-28T04:39:08.577Z,1.43
2023-03-28T04:40:08.652Z,1.56
2023-03-28T04:41:08.719Z,1.76
2023-03-28T04:42:08.861Z,1.78
2023-03-28T04:43:08.822Z,1.67
2023-03-28T04:44:08.892Z,1.55
2023-03-28T04:45:09.002Z,1.56
2023-03-28T04:46:09.052Z,1.63
2023-03-28T04:47:09.078Z,1.64
2023-03-28T04:48:09.167Z,1.75
2023-03-28T04:49:09.173Z,1.89
2023-03-28T04:50:09.224Z,1.92
2023-03-28T04:51:09.293Z,1.85
2023-03-28T04:52:09.368Z,1.80
2023-03-28T04:53:09.420Z,1.64
2023-03-28T04:54:09.484Z,1.66
2023-03-28T04:55:09.520Z,1.69
2023-03-28T04:56:09.562Z,1.71
2023-03-28T04:57:09.699Z,1.80
2023-03-28T04:58:09.697Z,1.90
2023-03-28T04:59:09.718Z,1.75
2023-03-28T05:00:09.851Z,1.81
2023-03-28T05:01:16.882Z,1.47
2023-03-28T05:03:12.395Z,1.51
2023-03-28T05:04:09.830Z,1.49
2023-03-28T05:08:09.792Z,1.92
2023-03-28T05:09:09.807Z,1.82
2023-03-28T05:10:10.454Z,1.73
2023-03-28T05:11:09.794Z,1.86
2023-03-28T05:12:09.763Z,1.91
2023-03-28T05:13:09.755Z,1.94
2023-03-28T05:14:09.770Z,1.87
2023-03-28T05:17:09.745Z,1.92
2023-03-28T05:18:09.745Z,1.96
2023-03-28T05:20:09.686Z,1.92
2023-03-28T05:25:09.803Z,2.11
2023-03-28T05:26:09.818Z,2.16
2023-03-28T05:27:09.856Z,2.19
2023-03-28T05:28:09.857Z,2.19
2023-03-28T05:29:09.900Z,2.31
2023-03-28T05:30:09.899Z,2.29
2023-03-28T05:31:09.938Z,2.35
2023-03-28T05:32:10.032Z,2.26
2023-03-28T05:33:10.065Z,1.88
2023-03-28T05:34:10.113Z,1.25
2023-03-28T05:35:10.123Z,1.98
2023-03-28T05:36:10.189Z,2.38
2023-03-28T05:37:10.709Z,2.19
2023-03-28T05:38:10.257Z,1.44
2023-03-28T05:43:10.393Z,0.53
2023-03-28T05:44:10.443Z,0.72
2023-03-28T05:45:18.072Z,1.07
2023-03-28T05:46:10.620Z,1.07
2023-03-28T05:47:10.513Z,1.14
2023-03-28T05:48:10.539Z,1.31
2023-03-28T05:49:10.534Z,1.70
2023-03-28T05:54:10.490Z,5.84
2023-03-28T05:56:10.435Z,11.38
2023-03-28T05:57:10.683Z,12.21
2023-03-28T05:58:10.435Z,12.90
2023-03-28T05:59:10.420Z,14.79
2023-03-28T06:00:10.445Z,15.78
2023-03-28T06:01:10.491Z,17.93
2023-03-28T06:03:16.218Z,18.73
2023-03-28T06:04:11.458Z,18.80
2023-03-28T06:09:10.348Z,41.00
2023-03-28T06:10:10.362Z,43.20
2023-03-28T06:12:10.391Z,52.10
2023-03-28T06:13:10.518Z,50.60
2023-03-28T06:14:10.545Z,52.03
2023-03-28T06:15:10.581Z,53.74
2023-03-28T06:16:10.640Z,52.04
2023-03-28T06:17:10.731Z,52.99
2023-03-28T06:18:10.773Z,53.10
2023-03-28T06:19:17.782Z,51.87
2023-03-28T06:20:11.829Z,51.96
2023-03-28T06:23:10.803Z,51.44
2023-03-28T06:29:10.752Z,47.08
2023-03-28T06:30:10.789Z,49.47
2023-03-28T06:31:10.837Z,49.65
2023-03-28T06:32:10.854Z,48.84
2023-03-28T06:33:10.926Z,50.16
2023-03-28T06:34:10.946Z,50.61
2023-03-28T06:35:10.984Z,47.51
2023-03-28T06:41:11.154Z,8.07
2023-03-28T06:42:11.200Z,10.04
2023-03-28T06:43:11.242Z,10.85
2023-03-28T06:44:11.307Z,13.58
2023-03-28T06:45:11.366Z,15.57
2023-03-28T06:46:11.455Z,17.21
2023-03-28T06:47:11.444Z,18.20
2023-03-28T06:48:11.524Z,15.77
2023-03-28T06:49:11.518Z,14.95
2023-03-28T06:50:11.565Z,18.96
2023-03-28T06:51:11.613Z,21.07
2023-03-28T06:52:11.629Z,19.84
2023-03-28T06:53:11.719Z,21.02
2023-03-28T06:54:11.660Z,20.13
2023-03-28T06:55:11.670Z,20.96
2023-03-28T06:56:11.661Z,20.80
2023-03-28T06:57:11.773Z,22.39
2023-03-28T06:58:11.761Z,22.19
2023-03-28T06:59:11.833Z,23.13
2023-03-28T07:00:11.878Z,17.47
2023-03-28T07:01:11.987Z,23.50
2023-03-28T07:05:12.171Z,27.71
2023-03-28T07:06:12.213Z,28.94
2023-03-28T07:07:12.293Z,30.76
2023-03-28T07:08:12.326Z,31.81
2023-03-28T07:09:12.355Z,34.23
2023-03-28T07:10:12.364Z,36.29
2023-03-28T07:11:12.422Z,35.84
2023-03-28T07:12:12.478Z,36.72
2023-03-28T07:13:12.481Z,31.69
2023-03-28T07:14:12.495Z,22.83
2023-03-28T07:15:12.550Z,28.86
2023-03-28T07:16:12.676Z,32.88
2023-03-28T07:17:12.677Z,36.66
2023-03-28T07:18:13.220Z,35.14
2023-03-28T07:19:12.787Z,34.03
2023-03-28T07:20:12.824Z,36.32
2023-03-28T07:21:12.856Z,25.90
2023-03-28T07:22:12.972Z,33.17
2023-03-28T07:23:13.025Z,36.63
2023-03-28T07:24:13.050Z,38.15
2023-03-28T07:25:13.144Z,36.55
2023-03-28T07:26:13.189Z,35.37
2023-03-28T07:27:16.021Z,31.79
2023-03-28T07:28:13.252Z,31.59
2023-03-28T07:29:13.239Z,29.83
2023-03-28T07:35:13.203Z,13.23
2023-03-28T07:36:13.250Z,3.19
2023-03-28T07:37:13.159Z,1.99
2023-03-28T07:38:13.171Z,1.42
2023-03-28T07:40:13.130Z,0.92
2023-03-28T07:41:13.140Z,0.55
2023-03-28T07:42:13.260Z,0.51
2023-03-28T07:44:13.132Z,0.88
2023-03-28T07:45:13.117Z,1.13
2023-03-28T07:49:13.094Z,1.87
2023-03-28T07:54:13.054Z,5.60
2023-03-28T07:56:13.121Z,4.64
2023-03-28T07:58:13.093Z,1.82
2023-03-28T07:59:13.001Z,0.73
2023-03-28T08:08:12.971Z,1.89
2023-03-28T08:09:13.070Z,2.33
2023-03-28T08:14:12.909Z,5.11
2023-03-28T08:15:12.942Z,5.61
2023-03-28T08:16:13.055Z,6.27
2023-03-28T08:17:13.084Z,6.90
2023-03-28T08:19:13.107Z,8.30
2023-03-28T08:20:13.131Z,9.18
2023-03-28T08:21:13.146Z,10.06
2023-03-28T08:27:13.142Z,12.27
2023-03-28T08:28:13.207Z,13.15
2023-03-28T08:30:13.137Z,13.88
2023-03-28T08:31:13.191Z,4.40
2023-03-28T08:32:13.187Z,2.35
2023-03-28T08:33:13.809Z,2.51
2023-03-28T08:35:13.225Z,1.36
2023-03-28T08:36:13.255Z,2.46
2023-03-28T08:37:13.254Z,3.27
2023-03-28T08:38:13.273Z,5.05
2023-03-28T08:39:13.322Z,6.52
2023-03-28T08:40:13.372Z,6.77
2023-03-28T08:41:13.438Z,6.62
2023-03-28T08:42:13.489Z,6.64
2023-03-28T08:43:13.542Z,6.42
2023-03-28T08:44:13.567Z,6.67
2023-03-28T08:45:13.541Z,6.55
2023-03-28T08:46:13.617Z,6.69
2023-03-28T08:47:13.627Z,3.59
2023-03-28T08:48:13.730Z,1.30
2023-03-28T08:49:13.706Z,1.54
2023-03-28T08:50:13.763Z,2.39
2023-03-28T08:51:13.818Z,1.00
2023-03-28T08:52:13.799Z,0.50
2023-03-28T08:53:14.257Z,0.93
2023-03-28T08:58:13.901Z,2.04
2023-03-28T08:59:13.942Z,3.34
2023-03-28T09:00:14.027Z,4.23
2023-03-28T09:01:14.061Z,4.86
2023-03-28T09:02:14.194Z,5.46
2023-03-28T09:03:14.227Z,1.96
2023-03-28T09:04:14.271Z,1.08
2023-03-28T09:05:23.127Z,0.58
2023-03-28T09:06:15.143Z,0.34
2023-03-28T09:13:14.119Z,1.08
2023-03-28T09:15:14.140Z,1.60
2023-03-28T09:16:14.126Z,1.81
2023-03-28T09:17:14.147Z,2.30
2023-03-28T09:22:16.059Z,4.36
2023-03-28T09:23:14.051Z,4.96
2023-03-28T09:24:14.031Z,5.59
2023-03-28T09:25:14.077Z,6.10
2023-03-28T09:26:14.116Z,6.69
2023-03-28T09:27:14.132Z,7.33
2023-03-28T09:28:14.225Z,7.75
2023-03-28T09:29:14.254Z,8.22
2023-03-28T09:30:14.314Z,8.75
2023-03-28T09:31:14.419Z,9.59
2023-03-28T09:32:14.446Z,10.09
2023-03-28T09:33:14.582Z,10.47
2023-03-28T09:34:14.483Z,11.26
2023-03-28T09:35:14.476Z,11.73
2023-03-28T09:36:14.568Z,12.23
2023-03-28T09:37:14.561Z,12.83
2023-03-28T09:38:14.617Z,13.40
2023-03-28T09:39:14.657Z,13.56
2023-03-28T09:40:14.642Z,13.54
2023-03-28T09:41:14.666Z,6.37
2023-03-28T09:42:14.716Z,1.06
2023-03-28T09:43:14.708Z,0.34
2023-03-28T09:44:15.306Z,0.42
2023-03-28T09:47:14.802Z,1.02
2023-03-28T09:48:16.496Z,1.16
2023-03-28T09:49:14.836Z,1.26
2023-03-28T09:53:14.866Z,2.61
2023-03-28T09:55:14.759Z,3.68
2023-03-28T09:56:14.822Z,4.45
2023-03-28T09:57:14.817Z,5.06
2023-03-28T09:58:15.007Z,5.86
2023-03-28T09:59:15.321Z,6.49
2023-03-28T10:00:14.729Z,7.00
2023-03-28T10:01:14.819Z,7.80
2023-03-28T10:04:14.941Z,10.14
2023-03-28T10:09:15.885Z,14.47
2023-03-28T10:10:14.700Z,16.44
2023-03-28T10:12:14.676Z,18.50
2023-03-28T10:13:14.683Z,18.47
2023-03-28T10:14:14.769Z,19.52
2023-03-28T10:16:14.666Z,20.87
2023-03-28T10:22:14.642Z,26.81
2023-03-28T10:24:14.578Z,30.05
2023-03-28T10:25:14.591Z,31.86
2023-03-28T10:26:14.579Z,7.34
2023-03-28T10:34:14.513Z,0.77
2023-03-28T10:35:14.519Z,0.68
2023-03-28T10:36:14.603Z,0.83
2023-03-28T10:40:14.538Z,2.27
2023-03-28T10:41:14.507Z,1.78
2023-03-28T10:43:14.478Z,2.18
2023-03-28T10:44:14.784Z,3.84
2023-03-28T10:45:14.800Z,4.88
2023-03-28T10:48:14.434Z,4.95
2023-03-28T10:52:14.412Z,7.45
2023-03-28T10:53:14.416Z,9.48
2023-03-28T10:54:14.805Z,9.18
2023-03-28T10:55:14.386Z,7.05
2023-03-28T10:56:14.461Z,1.73
2023-03-28T10:57:14.453Z,0.96
2023-03-28T10:58:14.365Z,0.51
2023-03-28T10:59:14.410Z,1.09
2023-03-28T11:00:14.496Z,2.22
2023-03-28T11:01:14.398Z,3.15
2023-03-28T11:03:14.588Z,3.05
2023-03-28T11:04:14.717Z,3.40
2023-03-28T11:05:14.561Z,3.84
2023-03-28T11:06:14.579Z,4.19
2023-03-28T11:07:14.649Z,5.09
2023-03-28T11:08:14.852Z,5.33
2023-03-28T11:09:14.827Z,6.07
2023-03-28T11:10:14.741Z,6.44
2023-03-28T11:11:14.660Z,6.97
2023-03-28T11:12:23.044Z,8.30
2023-03-28T11:13:15.688Z,8.33
2023-03-28T11:17:14.660Z,13.09
2023-03-28T11:20:14.632Z,16.21
2023-03-28T11:21:14.878Z,17.43
2023-03-28T11:22:14.778Z,18.72
2023-03-28T11:23:14.812Z,20.20
2023-03-28T11:24:14.849Z,20.68
2023-03-28T11:25:14.926Z,22.57
2023-03-28T11:26:14.967Z,22.75
2023-03-28T11:27:16.491Z,22.86
2023-03-28T11:28:15.094Z,22.83
2023-03-28T11:29:15.201Z,28.69
2023-03-28T11:30:15.207Z,35.87
2023-03-28T11:31:15.260Z,21.64
2023-03-28T11:32:15.231Z,4.86
2023-03-28T11:33:15.275Z,2.20
2023-03-28T11:34:15.818Z,2.86
2023-03-28T11:35:15.836Z,2.86
2023-03-28T11:36:15.408Z,4.08
2023-03-28T11:37:15.470Z,6.59
2023-03-28T11:38:15.521Z,8.97
2023-03-28T11:39:15.580Z,9.80
2023-03-28T11:40:15.854Z,9.36
2023-03-28T11:48:15.847Z,6.94
2023-03-28T11:49:15.848Z,6.80
2023-03-28T11:50:15.871Z,6.99
2023-03-28T11:51:15.918Z,6.83
2023-03-28T11:52:15.906Z,7.08
2023-03-28T11:53:15.897Z,7.19
2023-03-28T11:54:15.946Z,7.01
2023-03-28T11:55:16.009Z,7.11
2023-03-28T11:56:15.997Z,7.08
2023-03-28T11:57:16.043Z,7.02
2023-03-28T11:58:16.037Z,6.82
2023-03-28T11:59:16.061Z,7.23
2023-03-28T12:00:32.173Z,7.01
2023-03-28T12:01:17.085Z,6.67
2023-03-28T12:06:16.049Z,6.37
2023-03-28T12:07:16.022Z,6.44
2023-03-28T12:08:16.002Z,6.57
2023-03-28T12:09:16.017Z,6.56
2023-03-28T12:10:16.027Z,5.96
2023-03-28T12:16:16.051Z,0.53
2023-03-28T12:17:15.966Z,0.39
2023-03-28T12:18:15.982Z,0.45
2023-03-28T12:19:15.977Z,0.34
2023-03-28T12:20:16.039Z,0.56
2023-03-28T12:21:16.096Z,0.74
2023-03-28T12:24:16.148Z,0.51
2023-03-28T12:25:16.156Z,1.12
2023-03-28T12:26:16.178Z,1.12
2023-03-28T12:27:16.207Z,2.37
2023-03-28T12:28:16.285Z,3.38
2023-03-28T12:29:16.333Z,4.66
2023-03-28T12:30:16.338Z,4.90
2023-03-28T12:31:16.474Z,4.94
2023-03-28T12:32:16.402Z,5.04
2023-03-28T12:33:16.423Z,5.14
2023-03-28T12:34:16.385Z,5.38
2023-03-28T12:35:16.384Z,5.58
2023-03-28T12:42:16.718Z,9.27
2023-03-28T12:43:16.769Z,10.23
2023-03-28T12:44:16.837Z,10.93
2023-03-28T12:45:16.874Z,11.12
2023-03-28T12:46:16.957Z,10.73
2023-03-28T12:47:16.954Z,11.00
2023-03-28T12:48:17.061Z,11.70
2023-03-28T12:49:17.019Z,11.97
2023-03-28T12:50:17.090Z,12.14
2023-03-28T12:51:17.087Z,12.29
2023-03-28T12:52:17.368Z,12.41
2023-03-28T12:55:17.253Z,13.53
2023-03-28T12:56:17.267Z,13.33
2023-03-28T12:57:26.764Z,13.47
2023-03-28T12:58:18.302Z,13.51
2023-03-28T13:01:17.322Z,14.72
2023-03-28T13:07:18.407Z,15.36
2023-03-28T13:08:17.265Z,14.71
2023-03-28T13:09:17.257Z,14.81
2023-03-28T13:12:17.229Z,15.97
2023-03-28T13:13:17.250Z,16.69
2023-03-28T13:14:17.282Z,16.68
2023-03-28T13:15:17.330Z,16.73
2023-03-28T13:16:17.412Z,15.40
2023-03-28T13:17:17.365Z,15.15
2023-03-28T13:18:17.378Z,15.62
2023-03-28T13:19:18.837Z,16.32
2023-03-28T13:20:17.535Z,15.25
2023-03-28T13:25:17.627Z,4.37
2023-03-28T13:26:17.712Z,6.92
2023-03-28T13:27:17.760Z,8.29
2023-03-28T13:28:17.790Z,7.85
2023-03-28T13:29:17.878Z,6.81
2023-03-28T13:30:17.910Z,6.42
2023-03-28T13:31:18.285Z,6.00
2023-03-28T13:32:18.093Z,5.59
2023-03-28T13:33:18.100Z,6.03
2023-03-28T13:34:18.202Z,5.84
2023-03-28T13:35:18.200Z,5.86
2023-03-28T13:36:18.322Z,6.03
2023-03-28T13:37:22.431Z,5.96
2023-03-28T13:42:18.291Z,5.63
2023-03-28T13:43:18.274Z,5.47
2023-03-28T13:46:18.321Z,5.40
2023-03-28T13:52:18.328Z,5.93
2023-03-28T13:53:18.324Z,5.71
2023-03-28T13:54:18.478Z,5.85
2023-03-28T13:55:18.507Z,5.70
2023-03-28T13:56:18.702Z,5.86
2023-03-28T13:57:18.588Z,5.64
2023-03-28T13:58:19.119Z,5.58
2023-03-28T13:59:18.637Z,5.21
2023-03-28T14:00:18.697Z,5.20
2023-03-28T14:01:18.856Z,5.20
2023-03-28T14:02:18.849Z,5.09
2023-03-28T14:03:18.887Z,5.30
2023-03-28T14:04:18.920Z,5.23
2023-03-28T14:05:18.953Z,4.69
2023-03-28T14:06:19.004Z,5.13
2023-03-28T14:07:19.059Z,5.66
2023-03-28T14:08:19.106Z,5.40
2023-03-28T14:09:19.147Z,6.41
2023-03-28T14:10:19.228Z,6.14
2023-03-28T14:11:19.279Z,6.51
2023-03-28T14:12:19.329Z,5.77
2023-03-28T14:13:19.355Z,5.31
2023-03-28T14:14:19.441Z,3.23
2023-03-28T14:15:19.468Z,1.14
2023-03-28T14:16:19.506Z,0.68
2023-03-28T14:17:19.513Z,0.44
2023-03-28T14:18:19.576Z,0.36
2023-03-28T14:19:21.153Z,0.34
2023-03-28T14:22:19.662Z,0.34
2023-03-28T14:23:19.711Z,0.34
2023-03-28T14:24:19.768Z,0.44
2023-03-28T14:25:19.843Z,0.39
2023-03-28T14:26:19.888Z,0.66
2023-03-28T14:27:19.888Z,0.85
2023-03-28T14:28:19.953Z,0.99
2023-03-28T14:29:19.976Z,1.84
2023-03-28T14:34:20.108Z,3.30
2023-03-28T14:35:20.218Z,3.33
2023-03-28T14:36:20.206Z,3.80
2023-03-28T14:37:20.276Z,5.29
2023-03-28T14:38:20.316Z,5.48
2023-03-28T14:39:20.337Z,5.23
2023-03-28T14:40:20.365Z,5.27
2023-03-28T14:41:20.427Z,5.84
2023-03-28T14:42:20.409Z,6.71
2023-03-28T14:43:20.471Z,6.92
2023-03-28T14:44:20.454Z,5.26
2023-03-28T14:45:20.489Z,6.21
2023-03-28T14:46:20.575Z,7.30
2023-03-28T14:50:20.563Z,9.43
2023-03-28T14:51:20.568Z,10.54
2023-03-28T14:56:20.587Z,12.04
2023-03-28T14:59:20.543Z,13.61
2023-03-28T15:00:20.568Z,13.14
2023-03-28T15:01:20.629Z,15.55
2023-03-28T15:02:20.652Z,16.65
2023-03-28T15:03:20.713Z,14.91
2023-03-28T15:05:20.626Z,10.72
2023-03-28T15:06:20.567Z,13.37
2023-03-28T15:07:20.589Z,11.08
2023-03-28T15:09:02.503Z,0.50
2023-03-28T15:11:42.719Z,0.50
2023-03-28T15:12:42.736Z,0.50
2023-03-28T15:13:42.700Z,0.50
2023-03-28T15:14:42.724Z,0.50
2023-03-28T15:15:42.713Z,0.50
2023-03-28T15:16:42.748Z,0.63
2023-03-28T15:17:42.774Z,0.76
2023-03-28T15:18:44.286Z,1.30
2023-03-28T15:19:42.668Z,1.34
2023-03-28T15:20:42.681Z,1.26
2023-03-28T15:21:42.703Z,1.70
2023-03-28T15:22:42.651Z,2.09
2023-03-28T15:23:42.658Z,2.39
2023-03-28T15:24:42.644Z,2.23
2023-03-28T15:25:42.648Z,2.44
2023-03-28T15:26:42.623Z,3.15
2023-03-28T15:27:42.593Z,2.66
2023-03-28T15:28:42.606Z,2.91
2023-03-28T15:29:42.581Z,3.48
2023-03-28T15:30:42.638Z,3.48
2023-03-28T15:31:42.654Z,3.23
2023-03-28T15:32:42.692Z,3.83
2023-03-28T15:33:42.627Z,3.74
2023-03-28T15:34:42.637Z,3.81
2023-03-28T15:35:42.701Z,4.52
2023-03-28T15:36:42.685Z,5.82
2023-03-28T15:37:42.705Z,7.51
2023-03-28T15:38:42.670Z,5.55
2023-03-28T15:39:42.694Z,6.54
2023-03-28T15:40:42.698Z,7.41
2023-03-28T15:41:42.796Z,8.18
2023-03-28T15:42:42.722Z,6.93
2023-03-28T15:43:42.687Z,7.74
2023-03-28T15:44:42.735Z,8.65
2023-03-28T15:45:42.750Z,8.17
2023-03-28T15:46:42.781Z,8.86
2023-03-28T15:47:42.769Z,9.14
2023-03-28T15:48:42.725Z,9.80
2023-03-28T15:49:42.742Z,9.51
2023-03-28T15:50:42.724Z,11.25
2023-03-28T15:51:42.699Z,9.89
2023-03-28T15:52:42.727Z,10.93
2023-03-28T15:53:42.712Z,10.27
2023-03-28T15:54:42.698Z,8.51
2023-03-28T15:55:42.725Z,9.19
2023-03-28T15:56:42.741Z,9.92
2023-03-28T15:57:42.681Z,12.26
2023-03-28T15:58:42.715Z,12.67
2023-03-28T15:59:42.680Z,14.33
2023-03-28T16:00:42.689Z,14.68
2023-03-28T16:01:42.704Z,14.03
2023-03-28T16:02:42.715Z,13.11
2023-03-28T16:03:42.740Z,13.14
2023-03-28T16:04:42.667Z,16.13
2023-03-28T16:05:42.669Z,15.74
2023-03-28T16:06:42.681Z,15.87
2023-03-28T16:07:42.684Z,15.59
2023-03-28T16:08:42.658Z,14.20
2023-03-28T16:09:42.650Z,15.02
2023-03-28T16:10:42.626Z,16.45
2023-03-28T16:11:42.671Z,7.49
2023-03-28T16:12:42.659Z,5.94
2023-03-28T16:13:42.697Z,7.03
2023-03-28T16:14:42.677Z,7.20
2023-03-28T16:15:42.690Z,9.03
2023-03-28T16:16:42.754Z,8.19
2023-03-28T16:17:42.781Z,7.89
2023-03-28T16:18:42.702Z,8.96
2023-03-28T16:19:42.703Z,8.85
2023-03-28T16:20:42.734Z,9.46
2023-03-28T16:21:42.743Z,10.88
2023-03-28T16:22:42.710Z,15.02
2023-03-28T16:23:42.746Z,17.68
2023-03-28T16:24:42.728Z,19.64
2023-03-28T16:25:42.769Z,19.34
2023-03-28T16:26:42.783Z,18.30
2023-03-28T16:27:42.796Z,16.67
2023-03-28T16:28:42.782Z,20.73
2023-03-28T16:29:42.778Z,21.37
2023-03-28T16:30:42.793Z,20.19
2023-03-28T16:31:42.834Z,18.37
2023-03-28T16:32:42.852Z,21.25
2023-03-28T16:33:42.813Z,24.95
2023-03-28T16:34:42.827Z,18.50
2023-03-28T16:35:42.874Z,23.16
2023-03-28T16:36:42.828Z,23.28
2023-03-28T16:37:42.840Z,26.72
2023-03-28T16:38:42.830Z,26.04
2023-03-28T16:39:42.852Z,27.21
2023-03-28T16:40:42.823Z,22.83
2023-03-28T16:41:42.841Z,20.52
2023-03-28T16:42:42.852Z,17.31
2023-03-28T16:43:42.850Z,17.96
2023-03-28T16:44:42.863Z,18.84
2023-03-28T16:45:42.868Z,21.64
2023-03-28T16:46:42.996Z,18.72
2023-03-28T16:47:42.935Z,19.26
2023-03-28T16:48:42.877Z,22.23
2023-03-28T16:49:42.878Z,18.57
2023-03-28T16:50:42.917Z,18.73
2023-03-28T16:51:42.880Z,15.10
2023-03-28T16:52:42.894Z,14.65
2023-03-28T16:53:42.931Z,17.99
2023-03-28T16:54:42.930Z,20.53
2023-03-28T16:55:42.963Z,15.88
2023-03-28T16:56:42.987Z,16.96
2023-03-28T16:57:42.957Z,15.95
2023-03-28T16:58:42.956Z,15.76
2023-03-28T16:59:42.962Z,15.65
2023-03-28T17:00:43.000Z,15.21
2023-03-28T17:01:43.150Z,14.82
2023-03-28T17:02:43.080Z,14.70
2023-03-28T17:03:43.038Z,16.97
2023-03-28T17:04:43.034Z,17.99
2023-03-28T17:05:43.037Z,16.00
2023-03-28T17:06:43.083Z,14.82
2023-03-28T17:07:43.058Z,15.28
2023-03-28T17:08:43.082Z,15.28
2023-03-28T17:09:43.096Z,16.62
2023-03-28T17:10:43.086Z,14.67
2023-03-28T17:11:43.091Z,14.55
2023-03-28T17:12:43.091Z,12.98
2023-03-28T17:13:43.170Z,12.95
2023-03-28T17:14:43.136Z,12.91
2023-03-28T17:15:43.155Z,12.11
2023-03-28T17:16:43.211Z,12.65
2023-03-28T17:17:43.198Z,14.09
2023-03-28T17:18:43.171Z,14.35
2023-03-28T17:19:43.219Z,15.85
2023-03-28T17:20:43.234Z,14.85
2023-03-28T17:21:43.245Z,14.33
2023-03-28T17:22:43.253Z,14.78
2023-03-28T17:23:43.262Z,15.00
2023-03-28T17:24:43.275Z,16.18
2023-03-28T17:26:01.952Z,16.91
2023-03-28T17:26:44.282Z,16.68
2023-03-28T17:27:43.249Z,15.11
2023-03-28T17:28:43.263Z,13.69
2023-03-28T17:29:43.266Z,14.99
2023-03-28T17:30:43.267Z,15.05
2023-03-28T17:31:43.257Z,15.24
2023-03-28T17:32:43.272Z,15.30
2023-03-28T17:33:43.246Z,15.17
2023-03-28T17:34:43.225Z,15.63
2023-03-28T17:35:43.264Z,15.80
2023-03-28T17:36:43.213Z,15.56
2023-03-28T17:37:43.219Z,15.67
2023-03-28T17:38:43.204Z,15.17
2023-03-28T17:39:43.216Z,15.52
2023-03-28T17:40:43.185Z,14.78
2023-03-28T17:41:43.211Z,15.01
2023-03-28T17:42:43.205Z,15.21
2023-03-28T17:43:43.171Z,14.86
2023-03-28T17:44:43.165Z,15.37
2023-03-28T17:45:43.145Z,15.09
2023-03-28T17:46:43.182Z,14.43
2023-03-28T17:47:43.163Z,14.67
2023-03-28T17:48:43.128Z,14.27
2023-03-28T17:49:43.230Z,14.69
2023-03-28T17:50:43.140Z,14.73
2023-03-28T17:51:43.199Z,14.45
2023-03-28T17:52:43.201Z,13.82
2023-03-28T17:53:43.251Z,13.58
2023-03-28T17:54:43.263Z,14.08
2023-03-28T17:55:43.287Z,14.05
2023-03-28T17:56:43.363Z,14.40
2023-03-28T17:57:43.365Z,14.25
2023-03-28T17:58:43.442Z,13.59
2023-03-28T17:59:43.399Z,14.16
2023-03-28T18:00:43.468Z,13.94
2023-03-28T18:01:43.512Z,13.79
2023-03-28T18:02:43.580Z,13.97
2023-03-28T18:03:43.589Z,13.97
2023-03-28T18:04:43.582Z,14.33
2023-03-28T18:05:43.719Z,14.60
2023-03-28T18:06:43.627Z,14.72
2023-03-28T18:07:43.668Z,14.95
2023-03-28T18:08:43.684Z,14.62
2023-03-28T18:09:43.751Z,14.64
2023-03-28T18:10:43.772Z,14.42
2023-03-28T18:11:43.793Z,14.50
2023-03-28T18:12:43.809Z,14.65
2023-03-28T18:13:43.868Z,14.69
2023-03-28T18:14:43.841Z,14.11
2023-03-28T18:15:43.919Z,13.41
2023-03-28T18:16:44.006Z,13.66
2023-03-28T18:17:44.006Z,13.44
2023-03-28T18:18:43.988Z,13.26
2023-03-28T18:19:44.022Z,13.14
2023-03-28T18:20:44.053Z,12.95
2023-03-28T18:21:44.139Z,12.87
2023-03-28T18:22:44.157Z,12.58
2023-03-28T18:23:44.168Z,12.68
2023-03-28T18:24:44.227Z,12.62
2023-03-28T18:25:44.229Z,13.31
2023-03-28T18:26:44.292Z,13.29
2023-03-28T18:27:44.339Z,13.34
2023-03-28T18:28:44.376Z,12.96
2023-03-28T18:29:44.397Z,13.10
2023-03-28T18:30:44.461Z,13.81
2023-03-28T18:31:44.502Z,13.70
2023-03-28T18:32:44.515Z,13.73
2023-03-28T18:33:44.599Z,14.06
2023-03-28T18:34:44.563Z,14.21
2023-03-28T18:35:44.650Z,14.80
2023-03-28T18:36:44.651Z,14.87
2023-03-28T18:37:44.709Z,15.18
2023-03-28T18:38:44.737Z,16.10
2023-03-28T18:39:44.763Z,15.16
2023-03-28T18:40:44.773Z,14.91
2023-03-28T18:41:45.488Z,14.84
2023-03-28T18:42:44.827Z,15.11
2023-03-28T18:43:44.906Z,15.20
2023-03-28T18:44:44.925Z,15.25
2023-03-28T18:45:45.027Z,14.85
2023-03-28T18:46:45.004Z,13.98
2023-03-28T18:47:45.090Z,14.21
2023-03-28T18:48:45.063Z,14.32
2023-03-28T18:49:45.086Z,14.68
2023-03-28T18:50:45.134Z,14.45
2023-03-28T18:51:45.177Z,13.97
2023-03-28T18:52:45.374Z,13.74
2023-03-28T18:53:45.561Z,13.54
2023-03-28T18:54:45.391Z,13.69
2023-03-28T18:55:45.220Z,13.70
2023-03-28T18:56:45.277Z,13.28
2023-03-28T18:57:45.255Z,13.68
2023-03-28T18:58:45.274Z,13.13
2023-03-28T18:59:45.337Z,13.35
2023-03-28T19:00:45.358Z,13.31
2023-03-28T19:01:45.497Z,14.02
2023-03-28T19:02:45.629Z,14.17
2023-03-28T19:03:45.475Z,14.11
2023-03-28T19:04:45.472Z,13.81
2023-03-28T19:05:45.494Z,13.64
2023-03-28T19:06:45.535Z,13.26
2023-03-28T19:07:45.546Z,13.37
2023-03-28T19:08:45.645Z,13.02
2023-03-28T19:09:45.641Z,13.62
2023-03-28T19:10:45.664Z,13.56
2023-03-28T19:11:45.688Z,13.67
2023-03-28T19:12:45.703Z,13.53
2023-03-28T19:13:45.734Z,13.20
2023-03-28T19:14:45.817Z,13.13
2023-03-28T19:15:45.830Z,13.56
2023-03-28T19:16:45.900Z,13.44
2023-03-28T19:17:45.938Z,13.08
2023-03-28T19:18:45.931Z,12.72
2023-03-28T19:19:45.957Z,12.82
2023-03-28T19:20:45.987Z,13.00
2023-03-28T19:21:46.019Z,12.95
2023-03-28T19:22:46.070Z,13.39
2023-03-28T19:23:46.087Z,12.82
2023-03-28T19:24:46.125Z,13.07
2023-03-28T19:25:46.180Z,12.69
2023-03-28T19:26:46.225Z,13.40
2023-03-28T19:27:46.239Z,13.77
2023-03-28T19:28:46.277Z,13.76
2023-03-28T19:29:46.315Z,13.99
2023-03-28T19:30:46.389Z,13.84
2023-03-28T19:31:46.408Z,14.36
2023-03-28T19:32:46.442Z,14.07
2023-03-28T19:33:46.436Z,14.30
2023-03-28T19:34:46.475Z,14.04
2023-03-28T19:35:46.522Z,14.17
2023-03-28T19:36:46.553Z,14.11
2023-03-28T19:37:46.576Z,14.70
2023-03-28T19:38:46.596Z,14.85
2023-03-28T19:39:46.631Z,14.92
2023-03-28T19:40:46.666Z,14.14
2023-03-28T19:41:46.705Z,13.70
2023-03-28T19:42:46.770Z,13.24
2023-03-28T19:43:46.803Z,13.46
2023-03-28T19:44:46.821Z,13.76
2023-03-28T19:45:46.852Z,13.62
2023-03-28T19:46:46.968Z,13.98
2023-03-28T19:47:46.985Z,14.28
2023-03-28T19:48:46.980Z,13.63
2023-03-28T19:49:47.004Z,13.69
2023-03-28T19:50:47.031Z,13.78